Terminal Aerodrome Forecast
Issued by NWS

Home | Current Version | Previous Version | Text Only | Print | Product List | Glossary On
Versions: 1 2 3 4 5 6 7 8 9 10 11 12 13 14 15 16 17 18 19 20
146
FTUS44 KLZK 010022 RRA
TAFLIT
TAF
KLIT 010022Z 0100/0124 18010KT P6SM VCTS BKN040CB
     FM010300 VRB04KT P6SM BKN040
     FM011000 VRB03KT 5SM BR BKN025
      TEMPO 0110/0114 2SM BR OVC005
     FM011500 34005KT P6SM SCT025=

USA.gov is the U.S. government's official web portal to all federal, state and local government web resources and services.